Time;durP1;ratioP1;P1;durP2;ratioP2;P2;SDS_P1;SDS_P2;PMS_P1;PMS_P2;Temp;Humidity;BMP_temperature;BMP_pressure;BME280_temperature;BME280_humidity;BME280_pressure;Samples;Min_cycle;Max_cycle;Signal;HPM_P1;HPM_P2
2023/05/06 00:00:58;;;;;;;6.15;3.70;;;11.90;99.90;;;;;;4957974;28;20053;-80
2023/05/06 00:03:24;;;;;;;7.90;5.63;;;11.90;99.90;;;;;;4958104;28;20094;-82
2023/05/06 00:05:50;;;;;;;6.10;3.50;;;11.80;99.90;;;;;;4957859;28;20069;-81
2023/05/06 00:08:16;;;;;;;5.85;3.85;;;11.90;99.90;;;;;;4958292;28;20047;-81
2023/05/06 00:10:41;;;;;;;6.10;3.95;;;11.80;99.90;;;;;;4958286;28;20124;-82
2023/05/06 00:13:08;;;;;;;9.20;6.53;;;11.80;99.90;;;;;;4958260;28;20108;-82
2023/05/06 00:15:35;;;;;;;7.85;5.65;;;11.80;99.90;;;;;;4957558;28;20063;-82
2023/05/06 00:18:01;;;;;;;8.02;5.57;;;11.80;99.90;;;;;;4957963;28;20086;-81
2023/05/06 00:20:27;;;;;;;7.03;5.03;;;11.70;99.90;;;;;;4942121;28;20097;-81
2023/05/06 00:22:53;;;;;;;7.88;5.18;;;11.70;99.90;;;;;;4941930;28;20086;-81
2023/05/06 00:25:19;;;;;;;6.72;4.40;;;11.70;99.90;;;;;;4941981;28;20051;-81
2023/05/06 00:27:45;;;;;;;7.15;4.50;;;11.60;99.90;;;;;;4957967;28;20061;-81
2023/05/06 00:30:11;;;;;;;7.80;4.80;;;11.60;99.90;;;;;;4941557;28;20515;-81
2023/05/06 00:32:37;;;;;;;9.45;6.43;;;11.60;99.90;;;;;;4957870;28;20054;-81
2023/05/06 00:35:04;;;;;;;8.80;6.03;;;11.70;99.90;;;;;;4957995;28;20129;-81
2023/05/06 00:37:29;;;;;;;8.65;5.70;;;11.60;99.90;;;;;;4957443;28;20488;-81
2023/05/06 00:39:55;;;;;;;8.93;6.55;;;11.60;99.90;;;;;;4941907;28;20174;-81
2023/05/06 00:42:24;;;;;;;7.22;5.50;;;11.50;99.90;;;;;;4957716;28;20081;-81
2023/05/06 00:44:50;;;;;;;6.20;4.10;;;11.50;99.90;;;;;;4957880;28;20415;-81
2023/05/06 00:47:20;;;;;;;6.45;3.95;;;11.50;99.90;;;;;;4941269;28;20170;-82
2023/05/06 00:49:47;;;;;;;6.93;3.58;;;11.50;99.90;;;;;;4957742;28;20133;-82
2023/05/06 00:52:14;;;;;;;6.13;3.75;;;11.50;99.90;;;;;;4957608;28;20054;-82
2023/05/06 00:54:40;;;;;;;5.45;3.45;;;11.50;99.90;;;;;;4957826;28;20077;-82
2023/05/06 00:57:06;;;;;;;6.55;3.90;;;11.60;99.90;;;;;;4957634;28;20574;-81
2023/05/06 00:59:32;;;;;;;5.38;3.45;;;11.60;99.90;;;;;;4941508;28;20440;-82
2023/05/06 01:01:59;;;;;;;5.97;3.60;;;11.60;99.90;;;;;;4957364;28;20047;-81
2023/05/06 01:04:27;;;;;;;5.78;3.70;;;11.60;99.90;;;;;;4957528;28;20054;-81
2023/05/06 01:07:18;;;;;;;5.65;3.80;;;11.50;99.90;;;;;;4957591;28;20054;-81
2023/05/06 01:09:54;;;;;;;6.15;3.60;;;11.50;99.90;;;;;;4957636;28;20090;-81
2023/05/06 01:12:34;;;;;;;6.55;3.78;;;11.50;99.90;;;;;;4957200;28;20403;-81
2023/05/06 01:15:22;;;;;;;7.22;5.03;;;11.50;99.90;;;;;;4957163;28;20511;-81
2023/05/06 01:17:50;;;;;;;6.40;4.15;;;11.40;99.90;;;;;;4956886;28;20051;-80
2023/05/06 01:20:19;;;;;;;6.25;4.15;;;11.40;99.90;;;;;;4957344;28;20547;-80
2023/05/06 01:22:48;;;;;;;7.07;4.80;;;11.40;99.90;;;;;;4957072;28;20062;-80
2023/05/06 01:25:21;;;;;;;12.60;9.85;;;11.40;99.90;;;;;;4973376;28;20145;-80
2023/05/06 01:27:47;;;;;;;8.68;6.57;;;11.30;99.90;;;;;;4940997;28;20082;-81
2023/05/06 01:30:15;;;;;;;8.20;5.40;;;11.30;99.90;;;;;;4957327;28;20132;-81
2023/05/06 01:32:56;;;;;;;10.75;8.40;;;11.30;99.90;;;;;;4957408;28;20403;-80
2023/05/06 01:35:54;;;;;;;7.40;5.05;;;11.30;99.90;;;;;;4940902;28;20147;-80
2023/05/06 01:38:24;;;;;;;7.45;5.43;;;11.30;99.90;;;;;;4941507;28;20051;-80
2023/05/06 01:40:54;;;;;;;8.90;6.28;;;11.30;99.90;;;;;;4973222;28;20047;-80
2023/05/06 01:43:20;;;;;;;7.03;4.93;;;11.30;99.90;;;;;;4973142;28;20055;-80
2023/05/06 01:45:52;;;;;;;7.35;5.10;;;11.30;99.90;;;;;;4941252;28;20050;-80
2023/05/06 01:48:30;;;;;;;8.50;5.77;;;11.30;99.90;;;;;;4957353;28;20062;-80
2023/05/06 01:50:57;;;;;;;8.18;5.93;;;11.30;99.90;;;;;;4956708;28;20121;-80
2023/05/06 01:53:22;;;;;;;14.50;12.27;;;11.30;99.90;;;;;;4941322;28;20521;-81
2023/05/06 01:55:48;;;;;;;7.18;5.47;;;11.40;99.90;;;;;;4956805;28;20125;-80
2023/05/06 01:58:14;;;;;;;8.68;6.50;;;11.30;99.90;;;;;;4957111;28;20488;-79
2023/05/06 02:00:40;;;;;;;8.43;6.28;;;11.40;99.90;;;;;;4973233;28;20145;-80
2023/05/06 02:03:06;;;;;;;9.13;7.72;;;11.40;99.90;;;;;;4941138;28;20094;-80
2023/05/06 02:05:32;;;;;;;10.00;8.10;;;11.40;99.90;;;;;;4940951;28;20509;-80
2023/05/06 02:07:57;;;;;;;10.25;6.40;;;11.40;99.90;;;;;;4956940;28;20061;-80
2023/05/06 02:10:23;;;;;;;12.60;10.52;;;11.40;99.90;;;;;;4926012;28;20050;-80
2023/05/06 02:12:50;;;;;;;13.10;11.18;;;11.40;99.90;;;;;;4959913;28;20073;-80
2023/05/06 02:15:15;;;;;;;10.65;8.45;;;11.40;99.90;;;;;;4944099;28;20050;-79
2023/05/06 02:17:42;;;;;;;12.52;9.30;;;11.30;99.90;;;;;;4960486;28;20121;-79
2023/05/06 02:20:10;;;;;;;9.13;7.25;;;11.30;99.90;;;;;;4944357;28;20082;-79
2023/05/06 02:22:36;;;;;;;10.05;8.07;;;11.30;99.90;;;;;;4960372;28;20138;-79
2023/05/06 02:25:02;;;;;;;9.40;7.07;;;11.20;99.90;;;;;;4944051;28;20134;-79
2023/05/06 02:27:28;;;;;;;14.02;12.05;;;11.20;99.90;;;;;;4959691;28;20050;-78
2023/05/06 02:29:54;;;;;;;63.50;12.82;;;11.20;99.90;;;;;;4943613;28;20057;-78
2023/05/06 02:32:20;;;;;;;10.65;9.15;;;11.10;99.90;;;;;;4944148;28;20134;-78
2023/05/06 02:34:46;;;;;;;15.55;10.18;;;11.00;99.90;;;;;;4959494;28;20074;-78
2023/05/06 02:37:11;;;;;;;11.65;9.05;;;11.00;99.90;;;;;;4960047;28;20063;-79
2023/05/06 02:39:37;;;;;;;9.65;7.90;;;10.90;99.90;;;;;;4959484;28;20047;-79
2023/05/06 02:42:03;;;;;;;10.57;8.57;;;10.80;99.90;;;;;;4943378;28;20053;-79
2023/05/06 02:44:29;;;;;;;9.90;8.00;;;10.80;99.90;;;;;;4943666;28;20046;-79
2023/05/06 02:46:55;;;;;;;9.13;7.50;;;10.80;99.90;;;;;;4959942;28;20133;-79
2023/05/06 02:49:21;;;;;;;10.18;7.60;;;10.80;99.90;;;;;;4959695;28;20403;-79
2023/05/06 02:51:47;;;;;;;9.48;7.68;;;10.80;99.90;;;;;;4959783;28;20058;-78
2023/05/06 02:54:12;;;;;;;9.38;7.28;;;10.80;99.90;;;;;;4959782;28;20414;-78
2023/05/06 02:56:38;;;;;;;8.68;7.05;;;10.70;99.90;;;;;;4943694;28;20514;-78
2023/05/06 02:59:04;;;;;;;9.23;7.10;;;10.70;99.90;;;;;;4943068;28;20057;-78
2023/05/06 03:01:30;;;;;;;8.93;6.90;;;10.70;99.90;;;;;;4943545;28;20134;-78
2023/05/06 03:03:56;;;;;;;9.35;7.05;;;10.70;99.90;;;;;;4927874;28;20081;-78
2023/05/06 03:06:21;;;;;;;10.10;8.23;;;10.60;99.90;;;;;;4959430;28;20606;-78
2023/05/06 03:08:47;;;;;;;13.93;11.40;;;10.60;99.90;;;;;;4943543;28;20057;-78
2023/05/06 03:11:13;;;;;;;9.75;7.40;;;10.50;99.90;;;;;;4976125;28;20047;-79
2023/05/06 03:13:38;;;;;;;9.52;7.95;;;10.60;99.90;;;;;;4943210;28;20458;-79
2023/05/06 03:16:04;;;;;;;9.98;7.68;;;10.50;99.90;;;;;;4959418;28;20113;-78
2023/05/06 03:18:30;;;;;;;10.02;7.80;;;10.50;99.90;;;;;;4959355;28;20456;-79
2023/05/06 03:20:56;;;;;;;10.07;7.22;;;10.50;99.90;;;;;;4911461;28;20078;-79
2023/05/06 03:23:22;;;;;;;10.63;7.97;;;10.50;99.90;;;;;;4959273;28;20062;-79
2023/05/06 03:25:48;;;;;;;11.32;9.35;;;10.40;99.90;;;;;;4959019;28;20050;-78
2023/05/06 03:28:14;;;;;;;9.60;7.40;;;10.40;99.90;;;;;;4958883;28;20528;-78
2023/05/06 03:30:39;;;;;;;9.95;8.10;;;10.40;99.90;;;;;;4942879;28;20054;-78
2023/05/06 03:33:05;;;;;;;11.30;8.73;;;10.40;99.90;;;;;;4943114;28;20108;-79
2023/05/06 03:35:31;;;;;;;10.48;8.65;;;10.40;99.90;;;;;;4958913;28;20122;-79
2023/05/06 03:37:57;;;;;;;11.75;9.70;;;10.40;99.90;;;;;;4942629;28;20467;-79
2023/05/06 03:40:22;;;;;;;10.90;8.45;;;10.30;99.90;;;;;;4942779;28;20107;-79
2023/05/06 03:42:48;;;;;;;14.18;12.07;;;10.30;99.90;;;;;;4958532;28;20042;-78
2023/05/06 03:45:14;;;;;;;10.25;8.25;;;10.30;99.90;;;;;;4958225;28;20059;-78
2023/05/06 03:47:40;;;;;;;12.90;10.85;;;10.30;99.90;;;;;;4942830;28;20049;-78
2023/05/06 03:50:06;;;;;;;13.68;11.27;;;10.30;99.90;;;;;;4958771;28;20109;-78
2023/05/06 03:52:32;;;;;;;13.93;11.38;;;10.20;99.90;;;;;;4942817;28;20162;-78
2023/05/06 03:54:57;;;;;;;15.02;12.73;;;10.10;99.90;;;;;;4958710;28;20039;-78
2023/05/06 03:57:23;;;;;;;13.93;11.00;;;10.10;99.90;;;;;;4958684;28;20467;-78
2023/05/06 03:59:52;;;;;;;13.38;11.07;;;10.10;99.90;;;;;;4942557;28;20038;-78
2023/05/06 04:02:17;;;;;;;15.07;12.05;;;10.10;99.90;;;;;;4942471;28;20051;-78
2023/05/06 04:04:43;;;;;;;14.80;12.63;;;10.10;99.90;;;;;;4942635;28;20053;-78
2023/05/06 04:07:11;;;;;;;12.18;9.93;;;10.10;99.90;;;;;;4958143;28;20084;-78
2023/05/06 04:09:37;;;;;;;11.63;9.40;;;10.10;99.90;;;;;;4958357;28;20490;-78
2023/05/06 04:12:03;;;;;;;11.82;9.45;;;10.10;99.90;;;;;;4958294;28;20054;-78
2023/05/06 04:14:30;;;;;;;13.45;10.50;;;10.10;99.90;;;;;;4957951;28;20086;-78
2023/05/06 04:16:56;;;;;;;13.00;10.80;;;10.10;99.90;;;;;;4958187;28;20086;-78
2023/05/06 04:19:22;;;;;;;15.82;13.40;;;10.20;99.90;;;;;;4942238;28;20054;-78
2023/05/06 04:21:47;;;;;;;14.07;11.48;;;10.20;99.90;;;;;;4957968;28;20047;-78
2023/05/06 04:24:16;;;;;;;16.30;13.13;;;10.20;99.90;;;;;;4942286;28;20439;-78
2023/05/06 04:26:42;;;;;;;15.25;11.77;;;10.20;99.90;;;;;;4942622;28;20102;-78
2023/05/06 04:29:08;;;;;;;21.30;17.00;;;10.10;99.90;;;;;;4942063;28;20093;-78
2023/05/06 04:31:35;;;;;;;16.65;14.02;;;10.10;99.90;;;;;;4958004;28;20050;-78
2023/05/06 04:34:01;;;;;;;32.75;22.27;;;10.10;99.90;;;;;;4941904;28;20053;-78
2023/05/06 04:36:28;;;;;;;19.92;16.45;;;10.10;99.90;;;;;;4941853;28;20062;-78
2023/05/06 04:38:54;;;;;;;24.70;19.77;;;10.00;99.90;;;;;;4957823;28;20050;-78
2023/05/06 04:41:19;;;;;;;38.55;25.88;;;10.00;99.90;;;;;;4957600;28;20043;-78
2023/05/06 04:43:45;;;;;;;48.00;30.08;;;10.00;99.90;;;;;;4957139;28;20487;-78
2023/05/06 04:46:11;;;;;;;31.67;24.45;;;10.10;99.90;;;;;;4957535;28;20057;-78
2023/05/06 04:48:37;;;;;;;36.13;26.70;;;10.00;99.90;;;;;;4957734;28;20386;-78
2023/05/06 04:51:04;;;;;;;42.22;28.45;;;10.10;99.90;;;;;;4941829;28;20109;-78
2023/05/06 04:53:30;;;;;;;36.22;27.55;;;10.10;99.90;;;;;;4957544;28;20444;-78
2023/05/06 04:55:56;;;;;;;38.97;28.27;;;10.10;99.90;;;;;;4957807;28;20050;-78
2023/05/06 04:58:22;;;;;;;51.17;32.95;;;10.20;99.90;;;;;;4957587;28;20108;-78
2023/05/06 05:00:47;;;;;;;45.53;32.67;;;10.30;99.90;;;;;;4957597;28;20053;-78
2023/05/06 05:03:13;;;;;;;43.30;32.75;;;10.40;99.90;;;;;;4941445;28;20078;-78
2023/05/06 05:05:39;;;;;;;61.13;38.88;;;10.40;99.90;;;;;;4957626;28;20058;-78
2023/05/06 05:08:05;;;;;;;47.20;33.47;;;10.60;99.90;;;;;;4957302;28;20047;-78
2023/05/06 05:10:31;;;;;;;38.95;29.98;;;10.70;99.90;;;;;;4925841;28;20498;-78
2023/05/06 05:12:57;;;;;;;33.58;27.13;;;10.80;99.90;;;;;;4949644;28;20170;-78
2023/05/06 05:15:22;;;;;;;26.70;23.33;;;10.90;99.90;;;;;;4957191;28;20513;-78
2023/05/06 05:17:49;;;;;;;36.40;29.48;;;11.10;99.90;;;;;;4957398;28;20129;-78
2023/05/06 05:20:15;;;;;;;31.92;25.77;;;11.50;99.90;;;;;;4957409;28;20054;-78
2023/05/06 05:22:41;;;;;;;34.67;28.70;;;11.90;99.90;;;;;;4957178;28;20050;-78
2023/05/06 05:25:07;;;;;;;29.83;25.63;;;12.30;99.90;;;;;;4957300;28;20050;-78
2023/05/06 05:27:33;;;;;;;27.48;23.13;;;12.90;99.90;;;;;;4957224;28;20395;-78
2023/05/06 05:29:59;;;;;;;24.80;21.23;;;13.70;99.90;;;;;;4957398;28;20097;-78
2023/05/06 05:32:25;;;;;;;14.73;11.80;;;14.10;99.90;;;;;;4957432;28;20050;-78
2023/05/06 05:34:51;;;;;;;11.70;9.05;;;14.50;99.90;;;;;;4957340;28;20106;-79
2023/05/06 05:37:17;;;;;;;11.05;8.82;;;15.00;99.90;;;;;;4956667;28;20042;-79
2023/05/06 05:39:43;;;;;;;11.07;9.00;;;15.70;99.90;;;;;;4957143;28;20042;-79
2023/05/06 05:42:09;;;;;;;9.70;7.80;;;16.10;99.90;;;;;;4972735;28;20046;-79
2023/05/06 05:44:34;;;;;;;8.18;6.93;;;16.60;99.90;;;;;;4957245;28;20479;-79
2023/05/06 05:47:01;;;;;;;8.38;6.93;;;17.10;99.90;;;;;;4960917;28;20476;-79
2023/05/06 05:49:28;;;;;;;10.45;8.20;;;17.50;99.90;;;;;;4960968;28;20467;-79
2023/05/06 05:51:54;;;;;;;9.80;8.20;;;17.80;99.90;;;;;;4976707;28;20055;-79
2023/05/06 05:54:20;;;;;;;11.32;9.32;;;18.20;99.90;;;;;;4977219;28;20487;-79
2023/05/06 05:56:46;;;;;;;12.07;9.60;;;18.40;99.90;;;;;;4976709;28;20130;-79
2023/05/06 05:59:12;;;;;;;12.40;10.27;;;18.50;99.90;;;;;;4944533;28;20407;-79
2023/05/06 06:01:37;;;;;;;13.63;11.68;;;18.30;99.90;;;;;;4960570;28;20039;-79
2023/05/06 06:04:03;;;;;;;12.48;11.18;;;18.30;99.90;;;;;;4944723;28;20383;-79
2023/05/06 06:06:30;;;;;;;10.27;8.70;;;18.30;99.90;;;;;;4944381;28;20062;-79
2023/05/06 06:08:56;;;;;;;9.75;8.25;;;18.50;99.90;;;;;;4976707;28;20055;-79
2023/05/06 06:11:24;;;;;;;10.70;8.98;;;19.00;99.90;;;;;;4944624;28;20058;-79
2023/05/06 06:13:50;;;;;;;10.38;8.38;;;18.70;99.90;;;;;;4944671;28;20059;-79
2023/05/06 06:16:15;;;;;;;10.10;7.82;;;18.70;99.90;;;;;;4944238;28;20051;-80
2023/05/06 06:18:41;;;;;;;10.45;8.10;;;18.60;99.90;;;;;;4944273;28;20567;-80
2023/05/06 06:21:07;;;;;;;10.63;8.40;;;18.90;99.90;;;;;;4960048;28;20439;-79
2023/05/06 06:23:36;;;;;;;10.52;8.85;;;18.70;99.90;;;;;;4927986;28;20130;-79
2023/05/06 06:26:05;;;;;;;13.88;10.52;;;18.80;99.90;;;;;;4928544;28;20142;-79
2023/05/06 06:28:31;;;;;;;12.05;10.02;;;18.70;99.90;;;;;;4960277;28;20058;-79
2023/05/06 06:30:56;;;;;;;11.95;9.98;;;18.30;99.90;;;;;;4960194;28;20051;-79
2023/05/06 06:33:22;;;;;;;13.82;11.75;;;18.10;99.90;;;;;;4960230;28;20057;-79
2023/05/06 06:35:50;;;;;;;13.80;12.30;;;18.40;99.90;;;;;;4959433;28;20054;-79
2023/05/06 06:38:16;;;;;;;14.77;13.05;;;18.60;99.90;;;;;;4959920;28;20047;-79
2023/05/06 06:40:42;;;;;;;14.77;13.05;;;18.50;99.90;;;;;;4960031;28;20464;-80
2023/05/06 06:43:10;;;;;;;17.20;14.88;;;18.30;99.90;;;;;;4943906;28;20101;-79
2023/05/06 06:45:36;;;;;;;15.23;13.52;;;18.40;99.90;;;;;;4959986;28;20046;-79
2023/05/06 06:48:02;;;;;;;16.13;13.50;;;18.90;99.90;;;;;;4959986;28;20108;-79
2023/05/06 06:50:30;;;;;;;17.13;14.85;;;19.30;99.90;;;;;;4959657;28;20078;-79
2023/05/06 06:52:56;;;;;;;19.55;16.85;;;19.50;99.90;;;;;;4959769;28;20059;-79
2023/05/06 06:55:21;;;;;;;17.95;14.60;;;19.70;99.90;;;;;;4928052;28;20434;-79
2023/05/06 06:57:47;;;;;;;17.05;14.85;;;19.90;99.90;;;;;;4959447;28;20439;-79
2023/05/06 07:00:13;;;;;;;17.58;15.43;;;20.20;99.90;;;;;;4976709;28;20047;-81
2023/05/06 07:02:39;;;;;;;16.85;13.90;;;20.40;99.90;;;;;;4959122;28;20104;-80
2023/05/06 07:05:05;;;;;;;16.42;12.77;;;20.40;99.90;;;;;;4959388;28;20125;-80
2023/05/06 07:07:31;;;;;;;17.73;14.95;;;20.40;99.90;;;;;;4959376;28;20495;-80
2023/05/06 07:09:57;;;;;;;17.48;13.57;;;20.30;99.90;;;;;;4959284;28;20061;-80
2023/05/06 07:12:23;;;;;;;15.50;13.38;;;20.20;99.90;;;;;;4959186;28;20078;-80
2023/05/06 07:14:49;;;;;;;15.18;12.10;;;20.10;99.90;;;;;;4927353;28;20061;-79
2023/05/06 07:17:15;;;;;;;14.77;12.07;;;19.80;99.90;;;;;;4943859;28;20137;-79
2023/05/06 07:19:40;;;;;;;15.70;11.88;;;20.00;99.90;;;;;;4935581;28;20059;-79
2023/05/06 07:22:06;;;;;;;13.52;11.15;;;20.10;99.90;;;;;;4959126;28;20046;-79
2023/05/06 07:24:32;;;;;;;13.93;10.80;;;20.20;99.90;;;;;;4943197;28;20058;-79
2023/05/06 07:26:59;;;;;;;12.57;9.68;;;20.00;99.90;;;;;;4927431;28;20078;-79
2023/05/06 07:29:25;;;;;;;12.60;9.63;;;19.80;99.90;;;;;;4959132;28;20372;-79
2023/05/06 07:31:51;;;;;;;11.30;8.45;;;19.30;99.90;;;;;;4943257;28;20125;-79
2023/05/06 07:34:18;;;;;;;13.55;9.02;;;19.00;99.90;;;;;;4942919;28;20047;-79
2023/05/06 07:36:44;;;;;;;12.13;9.20;;;18.80;99.90;;;;;;4959152;28;20050;-79
2023/05/06 07:39:11;;;;;;;12.85;9.65;;;18.50;99.90;;;;;;4926538;28;20117;-79
2023/05/06 07:41:36;;;;;;;13.40;10.48;;;18.30;99.90;;;;;;4958696;28;20443;-79
2023/05/06 07:44:03;;;;;;;14.65;10.68;;;18.20;99.90;;;;;;4958314;28;20097;-79
2023/05/06 07:46:28;;;;;;;14.27;11.00;;;18.10;99.90;;;;;;4958806;28;20051;-79
2023/05/06 07:48:54;;;;;;;15.25;11.07;;;17.80;99.90;;;;;;4958532;28;20043;-79
2023/05/06 07:51:20;;;;;;;14.73;11.38;;;17.60;99.90;;;;;;4958840;28;20419;-79
2023/05/06 07:53:46;;;;;;;14.65;10.73;;;17.50;99.90;;;;;;4958724;28;20087;-79
2023/05/06 07:56:12;;;;;;;14.90;10.98;;;17.50;99.90;;;;;;4958699;28;20046;-79
2023/05/06 07:58:38;;;;;;;13.75;10.65;;;17.50;99.90;;;;;;4958625;28;20085;-79
2023/05/06 08:01:05;;;;;;;15.52;11.93;;;17.30;99.90;;;;;;4958477;28;20454;-80
2023/05/06 08:03:31;;;;;;;15.20;12.02;;;17.40;99.90;;;;;;4942782;28;20399;-80
2023/05/06 08:05:57;;;;;;;15.10;11.60;;;17.50;99.90;;;;;;4958360;28;20407;-80
2023/05/06 08:08:26;;;;;;;15.23;11.65;;;17.60;99.90;;;;;;4957492;28;20557;-80
2023/05/06 08:10:57;;;;;;;17.48;13.27;;;17.80;99.90;;;;;;4958590;28;20069;-79
2023/05/06 08:13:23;;;;;;;17.48;13.27;;;18.70;99.90;;;;;;4942087;28;20129;-80
2023/05/06 08:15:52;;;;;;;16.20;13.30;;;19.10;99.90;;;;;;4958427;28;20059;-80
2023/05/06 08:18:18;;;;;;;17.58;13.70;;;19.30;99.90;;;;;;4958233;28;20047;-80
2023/05/06 08:20:44;;;;;;;15.68;12.65;;;19.80;99.90;;;;;;4958114;28;20043;-80
2023/05/06 08:23:09;;;;;;;16.00;11.93;;;20.00;99.90;;;;;;4958237;28;20129;-80
2023/05/06 08:25:35;;;;;;;16.85;13.38;;;20.20;99.90;;;;;;4925910;28;20047;-80
2023/05/06 08:28:01;;;;;;;17.27;13.48;;;20.50;99.90;;;;;;4941786;28;20058;-80
2023/05/06 08:30:27;;;;;;;17.73;14.48;;;20.60;99.90;;;;;;4942275;28;20058;-80
2023/05/06 08:32:53;;;;;;;18.75;15.65;;;20.60;99.90;;;;;;4974111;28;20047;-80
2023/05/06 08:35:19;;;;;;;17.38;14.55;;;20.30;99.90;;;;;;4941911;28;20057;-80
2023/05/06 08:37:44;;;;;;;17.33;14.20;;;20.20;99.90;;;;;;4957928;28;20530;-81
2023/05/06 08:40:20;;;;;;;16.48;13.63;;;20.40;99.90;;;;;;4957442;28;20056;-81
2023/05/06 08:42:49;;;;;;;16.15;12.50;;;20.50;99.90;;;;;;4957675;28;20082;-81
2023/05/06 08:45:19;;;;;;;16.92;13.80;;;21.00;99.90;;;;;;4973989;28;20046;-81
2023/05/06 08:47:46;;;;;;;14.55;10.18;;;20.80;99.90;;;;;;4957740;28;20047;-81
2023/05/06 08:50:12;;;;;;;9.90;7.05;;;21.20;99.90;;;;;;4957708;28;20113;-82
2023/05/06 08:52:38;;;;;;;9.07;6.40;;;21.50;99.90;;;;;;4957169;28;20051;-80
2023/05/06 08:55:05;;;;;;;9.07;5.82;;;21.70;99.50;;;;;;4957722;28;20130;-82
2023/05/06 08:57:32;;;;;;;12.45;8.52;;;22.00;95.70;;;;;;4957654;28;20105;-81
2023/05/06 08:59:58;;;;;;;12.15;8.10;;;22.00;91.30;;;;;;4957010;28;20051;-82
2023/05/06 09:02:24;;;;;;;12.93;9.20;;;21.80;90.60;;;;;;4957195;28;20149;-81
2023/05/06 09:04:55;;;;;;;13.60;9.68;;;21.60;92.20;;;;;;4957666;28;20097;-82
2023/05/06 09:07:22;;;;;;;13.93;10.07;;;21.60;92.50;;;;;;4957384;28;20105;-80
2023/05/06 09:09:48;;;;;;;14.15;9.90;;;21.90;94.50;;;;;;4957016;28;20058;-82
2023/05/06 09:12:14;;;;;;;16.98;13.10;;;21.80;91.70;;;;;;4941506;28;20137;-82
2023/05/06 09:14:41;;;;;;;13.35;9.23;;;21.80;93.70;;;;;;4957087;28;20098;-80
2023/05/06 09:17:25;;;;;;;14.48;9.68;;;21.90;94.00;;;;;;4940973;28;20495;-81
2023/05/06 09:19:52;;;;;;;20.52;14.18;;;22.00;91.20;;;;;;4959514;28;20407;-78
2023/05/06 09:22:29;;;;;;;20.27;15.65;;;22.10;91.10;;;;;;4961109;28;20515;-79
2023/05/06 09:24:56;;;;;;;22.23;16.50;;;22.10;93.60;;;;;;4945478;28;20066;-79
2023/05/06 09:27:31;;;;;;;23.20;16.60;;;22.00;93.90;;;;;;4961431;28;20066;-79
2023/05/06 09:30:10;;;;;;;21.58;15.77;;;22.00;92.10;;;;;;4961383;28;20057;-79
2023/05/06 09:32:40;;;;;;;20.80;15.25;;;21.90;93.00;;;;;;4961321;28;20043;-79
2023/05/06 09:35:07;;;;;;;20.50;15.13;;;21.70;91.70;;;;;;4945204;28;20105;-80
2023/05/06 09:37:32;;;;;;;19.33;14.13;;;21.60;95.30;;;;;;4961282;28;20058;-80
2023/05/06 09:39:59;;;;;;;16.27;12.18;;;21.50;93.10;;;;;;4929406;28;20047;-79
2023/05/06 09:42:27;;;;;;;16.17;11.60;;;21.50;92.50;;;;;;4944483;28;20057;-80
2023/05/06 09:44:55;;;;;;;17.10;11.43;;;21.30;93.30;;;;;;4944893;28;20109;-80
2023/05/06 09:47:22;;;;;;;17.42;12.52;;;21.40;93.80;;;;;;4961089;28;20133;-81
2023/05/06 09:49:48;;;;;;;16.02;11.65;;;21.30;93.80;;;;;;4913800;28;20138;-80
2023/05/06 09:52:14;;;;;;;19.30;13.48;;;21.40;92.80;;;;;;4944581;28;20079;-80
2023/05/06 09:54:41;;;;;;;18.65;13.05;;;21.10;96.70;;;;;;4976961;28;20050;-80
2023/05/06 09:57:08;;;;;;;18.73;12.98;;;20.80;95.70;;;;;;4960814;28;20137;-80
2023/05/06 09:59:35;;;;;;;15.43;11.23;;;20.60;95.20;;;;;;4960671;28;20046;-79
2023/05/06 10:02:01;;;;;;;16.25;12.27;;;20.70;95.90;;;;;;4960596;28;20046;-80
2023/05/06 10:04:29;;;;;;;17.92;12.52;;;20.70;98.30;;;;;;4960667;28;20442;-80
2023/05/06 10:06:56;;;;;;;16.40;12.48;;;20.70;97.60;;;;;;4960710;28;20142;-80
2023/05/06 10:09:26;;;;;;;16.35;11.77;;;20.70;98.60;;;;;;4960703;28;20176;-81
2023/05/06 10:11:53;;;;;;;14.70;11.05;;;20.70;99.60;;;;;;4960626;28;20073;-80
2023/05/06 10:14:19;;;;;;;14.45;11.45;;;20.60;98.90;;;;;;4960199;28;20106;-80
2023/05/06 10:16:48;;;;;;;14.68;11.98;;;20.50;98.50;;;;;;4959980;28;20515;-81
2023/05/06 10:19:19;;;;;;;15.25;10.70;;;20.20;98.90;;;;;;4960607;28;20622;-81
2023/05/06 10:21:50;;;;;;;15.10;10.90;;;20.10;98.50;;;;;;4960464;28;20082;-80
2023/05/06 10:24:20;;;;;;;14.20;11.70;;;20.00;99.90;;;;;;4960624;28;20066;-81
2023/05/06 10:26:46;;;;;;;14.90;11.50;;;19.70;99.90;;;;;;4960399;28;20039;-81
2023/05/06 10:29:12;;;;;;;13.90;11.02;;;19.60;99.90;;;;;;4944387;28;20181;-81
2023/05/06 10:31:46;;;;;;;13.75;10.75;;;19.60;99.90;;;;;;4943682;28;20137;-81
2023/05/06 10:34:12;;;;;;;12.77;10.07;;;19.40;99.90;;;;;;4960228;28;20407;-81
2023/05/06 10:36:41;;;;;;;12.30;10.25;;;19.30;99.90;;;;;;4959817;28;20055;-81
2023/05/06 10:39:09;;;;;;;14.25;10.38;;;19.40;99.90;;;;;;4944113;28;20046;-81
2023/05/06 10:41:36;;;;;;;14.20;9.70;;;19.50;99.90;;;;;;4943840;28;20075;-81
2023/05/06 10:44:01;;;;;;;11.10;8.60;;;19.70;99.90;;;;;;4944194;28;20065;-81
2023/05/06 10:46:28;;;;;;;12.27;8.40;;;19.80;99.30;;;;;;4959697;28;20042;-82
2023/05/06 10:49:12;;;;;;;10.80;7.82;;;19.90;99.60;;;;;;4959879;28;20076;-82
2023/05/06 10:51:41;;;;;;;11.23;7.32;;;19.90;98.80;;;;;;4959629;28;20058;-82
2023/05/06 10:54:07;;;;;;;11.68;8.30;;;19.80;99.10;;;;;;4943817;28;20047;-82
2023/05/06 10:56:36;;;;;;;13.80;9.30;;;19.70;99.90;;;;;;4959904;28;20053;-81
2023/05/06 10:59:10;;;;;;;13.75;9.60;;;19.60;99.90;;;;;;4959694;28;20379;-82
2023/05/06 11:01:43;;;;;;;13.55;9.32;;;19.50;99.90;;;;;;4943590;28;20054;-82
2023/05/06 11:04:11;;;;;;;13.23;9.45;;;19.40;99.90;;;;;;4959492;28;20046;-82
2023/05/06 11:07:06;;;;;;;12.63;8.70;;;19.40;99.90;;;;;;4959639;28;20066;-82
2023/05/06 11:09:32;;;;;;;11.82;8.45;;;19.40;99.90;;;;;;4950815;28;20065;-82
2023/05/06 11:12:02;;;;;;;11.55;8.63;;;19.50;99.90;;;;;;4943599;28;20051;-82
2023/05/06 11:14:30;;;;;;;13.27;9.20;;;19.60;99.90;;;;;;4959041;28;20500;-82
2023/05/06 11:16:58;;;;;;;12.73;9.45;;;19.60;99.90;;;;;;4927122;28;20407;-83
2023/05/06 11:19:27;;;;;;;13.93;9.43;;;19.70;99.90;;;;;;4959528;28;20395;-83
2023/05/06 11:21:56;;;;;;;14.95;10.20;;;19.70;99.90;;;;;;4958894;28;20071;-83
2023/05/06 11:24:39;;;;;;;13.65;10.02;;;19.70;99.90;;;;;;4959384;28;20486;-83
2023/05/06 11:27:05;;;;;;;13.82;9.50;;;19.70;99.90;;;;;;4959287;28;20054;-83
2023/05/06 11:29:31;;;;;;;12.88;9.10;;;19.80;99.90;;;;;;4958906;28;20128;-83
2023/05/06 11:31:57;;;;;;;13.10;9.60;;;19.80;99.90;;;;;;4959107;28;20057;-83
2023/05/06 11:34:23;;;;;;;11.32;9.07;;;19.90;99.70;;;;;;4943165;28;20050;-83
2023/05/06 11:36:51;;;;;;;12.52;9.48;;;19.80;98.50;;;;;;4958836;28;20498;-82
2023/05/06 11:39:20;;;;;;;12.50;9.32;;;19.80;99.90;;;;;;4959050;28;20086;-82
2023/05/06 11:41:46;;;;;;;11.32;8.73;;;19.90;99.30;;;;;;4958538;28;20474;-82
2023/05/06 11:44:23;;;;;;;12.60;8.50;;;20.10;99.90;;;;;;4926280;28;20387;-83
2023/05/06 11:46:49;;;;;;;11.88;8.85;;;20.30;99.00;;;;;;4942834;28;20038;-83
2023/05/06 11:49:16;;;;;;;12.18;9.32;;;20.40;96.50;;;;;;4942757;28;20054;-82
2023/05/06 11:51:41;;;;;;;11.90;9.18;;;20.30;95.70;;;;;;4958530;28;20462;-83
2023/05/06 11:54:09;;;;;;;14.65;10.13;;;20.20;95.90;;;;;;4942758;28;20050;-83
2023/05/06 11:56:52;;;;;;;13.68;9.57;;;20.00;96.10;;;;;;4958680;28;20066;-83
2023/05/06 11:59:29;;;;;;;12.23;9.65;;;19.90;96.80;;;;;;4958348;28;20439;-83
2023/05/06 12:02:01;;;;;;;13.25;9.65;;;19.80;98.40;;;;;;4942390;28;20407;-83
2023/05/06 12:04:27;;;;;;;13.70;10.50;;;19.80;97.40;;;;;;4958539;28;20047;-83
2023/05/06 12:06:55;;;;;;;12.40;10.18;;;19.60;99.10;;;;;;4958422;28;20046;-83
2023/05/06 12:09:24;;;;;;;15.60;11.13;;;19.60;98.60;;;;;;4958506;28;20053;-83
2023/05/06 12:11:55;;;;;;;13.68;10.77;;;19.70;97.60;;;;;;4958317;28;20137;-83
2023/05/06 12:14:21;;;;;;;15.35;11.63;;;19.70;98.40;;;;;;4942196;28;20503;-83
2023/05/06 12:16:47;;;;;;;14.32;12.45;;;19.80;98.90;;;;;;4958053;28;20462;-82
2023/05/06 12:19:16;;;;;;;12.85;10.93;;;19.80;99.30;;;;;;4942367;28;20042;-83
2023/05/06 12:21:47;;;;;;;15.38;11.77;;;19.80;99.60;;;;;;4957885;28;20435;-83
2023/05/06 12:24:13;;;;;;;;;;;19.80;99.60;;;;;;4958548;28;20046;-83
2023/05/06 12:26:47;;;;;;;13.15;10.65;;;19.80;99.90;;;;;;4958142;28;20419;-83
2023/05/06 12:29:18;;;;;;;13.32;11.18;;;19.80;99.90;;;;;;4957945;28;20086;-83
2023/05/06 12:31:46;;;;;;;14.00;12.00;;;19.90;99.90;;;;;;4957532;28;20101;-83
2023/05/06 12:34:16;;;;;;;14.15;11.05;;;20.00;99.40;;;;;;4957761;28;20455;-83
2023/05/06 12:36:44;;;;;;;14.32;9.90;;;19.90;99.90;;;;;;4958068;28;20133;-83